createdAt,value
2023-02-05T10:56:03.791Z,-0.44
2023-02-05T11:01:18.933Z,0.03
2023-02-05T11:06:25.567Z,0.08
2023-02-05T11:11:32.202Z,0.02
2023-02-05T11:16:42.466Z,-0.05
2023-02-05T11:21:47.595Z,-0.06
2023-02-05T11:27:12.453Z,-0.05
2023-02-05T11:32:37.091Z,-0.09
2023-02-05T11:37:41.291Z,-0.09
2023-02-05T11:42:52.521Z,-0.09
2023-02-05T11:47:57.333Z,-0.20
2023-02-05T11:53:13.709Z,-0.17
2023-02-05T11:58:36.193Z,-0.13
2023-02-05T12:03:41.466Z,-0.09
2023-02-05T12:08:55.669Z,-0.03
2023-02-05T12:14:23.009Z,0.08
2023-02-05T12:19:33.722Z,0.05
2023-02-05T12:24:49.144Z,-0.02
2023-02-05T12:30:14.440Z,-0.01
2023-02-05T12:35:24.210Z,0.35
2023-02-05T12:40:55.109Z,0.34
2023-02-05T12:45:59.329Z,0.23
2023-02-05T12:51:22.729Z,0.14
2023-02-05T12:56:53.621Z,0.10
2023-02-05T13:02:23.595Z,0.15
2023-02-05T13:09:06.056Z,0.15
2023-02-05T13:14:38.134Z,0.22
2023-02-05T13:19:57.225Z,0.43
2023-02-05T13:25:38.147Z,0.87
2023-02-05T13:30:47.669Z,0.70
2023-02-05T13:36:21.048Z,0.60
2023-02-05T13:41:43.165Z,0.57
2023-02-05T13:47:05.708Z,0.52
2023-02-05T13:52:14.755Z,0.43
2023-02-05T13:58:05.137Z,0.39
2023-02-05T14:03:10.469Z,0.39
2023-02-05T14:08:24.765Z,0.39
2023-02-05T14:13:34.500Z,0.36
2023-02-05T14:18:41.658Z,0.33
2023-02-05T14:23:47.772Z,0.29
2023-02-05T14:28:52.540Z,0.31
2023-02-05T14:34:28.185Z,0.43
2023-02-05T14:39:34.968Z,0.34
2023-02-05T14:44:42.667Z,0.27
2023-02-05T14:49:50.726Z,0.16
2023-02-05T14:55:13.907Z,0.04
2023-02-05T15:00:34.965Z,-0.03
2023-02-05T15:05:44.059Z,-0.10
2023-02-05T15:11:15.180Z,0.53
2023-02-05T15:16:21.814Z,0.31
2023-02-05T15:21:49.806Z,0.18
2023-02-05T15:36:20.201Z,0.23
2023-02-05T15:41:25.567Z,0.02
2023-02-05T15:47:24.719Z,-0.18
2023-02-05T16:06:44.249Z,-0.46
2023-02-05T16:47:35.870Z,0.60
2023-02-05T17:08:55.844Z,2.21
2023-02-05T17:15:37.520Z,1.52
2023-02-05T17:39:51.022Z,0.38
2023-02-05T17:43:41.910Z,0.15
2023-02-05T17:49:21.838Z,0.09
2023-02-05T18:03:40.389Z,0.11
2023-02-05T19:06:15.226Z,-0.02
2023-02-05T19:11:52.205Z,0.09
2023-02-05T19:17:52.838Z,0.12
2023-02-05T19:23:50.740Z,2.40
2023-02-05T19:29:17.942Z,1.76
2023-02-05T19:34:45.319Z,1.29
2023-02-05T19:40:54.818Z,0.91
2023-02-05T20:01:56.272Z,0.16
2023-02-05T20:07:09.915Z,0.08
2023-02-05T20:13:26.835Z,0.01
2023-02-05T20:20:12.659Z,-0.01
2023-02-05T20:26:33.391Z,-0.09
2023-02-05T20:32:49.747Z,-0.11
2023-02-05T21:05:56.640Z,-0.20
2023-02-05T21:12:23.040Z,-0.19
2023-02-05T21:19:16.375Z,-0.21
2023-02-05T21:25:34.002Z,-0.22
2023-02-05T21:31:50.610Z,-0.23
2023-02-05T21:38:50.960Z,-0.23
2023-02-05T21:45:27.353Z,-0.26
2023-02-05T22:05:28.432Z,-0.26
2023-02-05T22:12:04.309Z,-0.25
2023-02-05T22:18:32.508Z,-0.29
2023-02-05T22:33:06.186Z,-0.31
2023-02-05T22:39:48.929Z,-0.33
2023-02-05T23:04:09.986Z,-0.27
2023-02-05T23:09:16.878Z,-0.22
2023-02-05T23:14:58.129Z,-0.25
2023-02-05T23:20:34.100Z,-0.38
2023-02-05T23:26:42.479Z,-0.42
2023-02-05T23:31:46.459Z,-0.43
2023-02-05T23:36:49.965Z,-0.45
2023-02-05T23:41:53.201Z,-0.45
2023-02-05T23:47:31.897Z,-0.40
2023-02-05T23:53:07.571Z,-0.41
2023-02-05T23:58:48.973Z,-0.53
